EDT,Max TemperatureF,Mean TemperatureF,Min TemperatureF,Max Dew PointF,MeanDew PointF,Min DewpointF,Max Humidity, Mean Humidity, Min Humidity, Max Sea Level PressureIn, Mean Sea Level PressureIn, Min Sea Level PressureIn, Max VisibilityMiles, Mean VisibilityMiles, Min VisibilityMiles, Max Wind SpeedMPH, Mean Wind SpeedMPH, Max Gust SpeedMPH,PrecipitationIn, CloudCover, Events, WindDirDegrees
2013-10-1,79,68,56,60,56,54,93,68,42,30.18,30.12,30.07,10,10,8,8,2,14,0.00,1,,286
2013-10-2,83,71,59,62,59,56,97,70,42,30.18,30.14,30.09,10,7,1,9,2,16,0.00,0,,42
2013-10-3,80,71,62,63,60,57,93,71,48,30.16,30.12,30.09,10,10,10,13,1,29,0.00,1,,197
2013-10-4,83,72,61,62,60,58,90,68,45,30.18,30.13,30.10,10,9,5,7,1,10,0.00,1,,150
2013-10-5,84,74,63,62,61,59,93,70,47,30.15,30.10,30.04,10,9,5,9,2,15,0.00,0,,146
2013-10-6,81,72,63,67,63,59,93,72,51,30.04,29.97,29.89,10,6,1,12,4,22,1.34,5,Rain-Thunderstorm,349
2013-10-7,76,69,61,65,61,53,93,70,46,30.00,29.89,29.83,10,6,1,15,6,25,0.49,6,Rain,277
2013-10-8,72,66,59,57,53,48,90,69,47,30.18,30.08,29.96,10,10,10,22,9,31,0.00,5,,77
2013-10-9,73,63,53,53,46,41,80,60,40,30.22,30.16,30.12,10,10,10,16,5,24,0.00,0,,82
2013-10-10,78,65,52,53,52,50,89,65,40,30.15,30.09,30.02,10,10,10,18,5,24,0.00,0,,315
2013-10-11,80,67,54,57,53,49,86,60,33,30.06,30.01,29.96,10,10,10,13,4,25,0.00,0,,298
2013-10-12,80,68,55,58,55,52,93,67,40,30.10,30.04,29.99,10,10,8,13,4,29,0.00,0,,317
2013-10-13,80,69,58,62,58,55,93,70,47,30.20,30.15,30.10,10,10,9,9,4,13,0.00,4,,73
2013-10-14,74,68,61,63,60,57,93,77,61,30.26,30.20,30.14,10,10,6,15,7,18,0.01,6,Rain,73
2013-10-15,65,62,58,61,56,54,93,80,67,30.20,30.15,30.08,10,10,7,10,5,32,0.00,7,,88
2013-10-16,72,65,58,59,56,54,87,74,61,30.08,30.03,29.98,10,10,9,7,2,13,0.00,6,Rain,58
2013-10-17,68,64,60,65,62,58,97,88,78,30.00,29.95,29.89,10,6,2,12,4,21,0.41,7,Rain,244
2013-10-18,70,62,54,58,54,46,93,69,45,30.05,29.98,29.93,10,7,1,9,4,25,0.01,6,,278
2013-10-19,62,58,54,55,53,51,93,80,67,29.99,29.96,29.92,10,10,9,14,5,18,0.02,4,Rain,269
2013-10-20,68,56,44,50,42,32,92,61,29,30.08,30.03,29.98,10,10,8,8,3,14,0.00,0,,310
2013-10-21,64,55,46,55,50,43,87,77,67,30.16,30.10,30.04,10,9,6,9,3,10,0.00,3,,71
2013-10-22,70,62,54,56,52,47,93,70,47,30.04,29.94,29.85,10,8,5,12,5,25,0.02,5,Rain,260
2013-10-23,59,50,40,48,39,30,86,60,33,30.08,29.92,29.82,10,10,10,23,11,32,0.00,0,,295
2013-10-24,62,50,37,39,35,32,85,61,36,30.20,30.15,30.08,10,10,10,15,6,30,0.00,1,,277
2013-10-25,58,47,35,38,26,16,71,46,20,30.37,30.30,30.20,10,10,10,13,6,18,0.00,0,,314
2013-10-26,57,45,33,37,31,27,75,57,38,30.35,30.27,30.17,10,10,10,13,5,17,0.00,0,,27
2013-10-27,67,56,44,51,42,32,86,67,48,30.16,30.13,30.09,10,10,10,15,6,25,0.00,4,,268
2013-10-28,65,59,53,55,53,50,93,80,67,30.29,30.23,30.14,10,9,4,12,3,26,0.11,7,Rain,268
2013-10-29,70,61,51,54,52,50,100,78,55,30.35,30.29,30.26,10,6,0,13,1,,0.00,4,Fog,32
2013-10-30,75,66,56,55,54,53,93,71,49,30.32,30.25,30.18,10,9,5,13,2,28,0.00,2,,224
2013-10-31,73,66,59,59,55,51,75,71,66,30.17,30.06,29.89,10,10,10,14,6,29,0.01,4,,168